CheckWX is a tool to help pilots better visualize weather data.  It is not intended as a substitute for an official pre-flight weather briefing.

14:41:24 UTC

GMFK METAR
Moulay Ali Cherif Airport
Errachidia, Morocco
Current

41 mins ago

GMFK 221400Z 31004KT 9999 FEW023 21/M07 Q1008 NOSIG
Observed
Apr-22 @ 14:00 UTC
Wind
  • 310° at 4 KTS
Visibility
10,000+ meters
Flight Rules
VFR
Cloud Levels
  • Few at 2,300' AGL
Temperature
21°C / 70°F
Dewpoint
-7°C / 19°F
Humidity
15%
Altimeter
29.76" Hg
Pressure
1007.92 hPa
Previous

2 hours ago

GMFK 221300Z 31010KT 250V350 9999 FEW023 20/M08 Q1008 NOSIG
Observed
Apr-22 @ 13:00 UTC
Wind
  • 310° at 10 KTS
Visibility
10,000+ meters
Flight Rules
VFR
Cloud Levels
  • Few at 2,300' AGL
Temperature
20°C / 68°F
Dewpoint
-8°C / 18°F
Humidity
14%
Altimeter
29.76" Hg
Pressure
1007.92 hPa
Previous

3 hours ago

GMFK 221200Z 30004KT 210V330 9999 FEW023 20/M07 Q1009 NOSIG
Observed
Apr-22 @ 12:00 UTC
Wind
  • 300° at 4 KTS
Visibility
10,000+ meters
Flight Rules
VFR
Cloud Levels
  • Few at 2,300' AGL
Temperature
20°C / 68°F
Dewpoint
-7°C / 19°F
Humidity
16%
Altimeter
29.79" Hg
Pressure
1008.92 hPa